createdAt,value
2022-12-05T00:01:41.031Z,2.45
2022-12-05T00:04:13.345Z,2.70
2022-12-05T00:06:41.539Z,2.50
2022-12-05T00:09:11.068Z,2.10
2022-12-05T00:11:42.084Z,2.70
2022-12-05T00:14:10.760Z,2.30
2022-12-05T00:16:39.850Z,2.60
2022-12-05T00:19:08.890Z,3.10
2022-12-05T00:21:37.351Z,2.50
2022-12-05T00:24:06.727Z,2.65
2022-12-05T00:26:34.172Z,2.10
2022-12-05T00:29:02.109Z,2.42
2022-12-05T00:31:29.260Z,2.35
2022-12-05T00:33:59.529Z,2.80
2022-12-05T00:36:29.420Z,2.22
2022-12-05T00:38:58.934Z,2.35
2022-12-05T00:41:27.740Z,2.40
2022-12-05T00:43:55.515Z,2.45
2022-12-05T00:46:26.713Z,1.95
2022-12-05T00:48:55.033Z,2.13
2022-12-05T00:51:29.058Z,2.20
2022-12-05T00:53:59.268Z,2.38
2022-12-05T00:56:27.423Z,2.65
2022-12-05T00:58:56.264Z,1.50
2022-12-05T01:01:29.516Z,2.05
2022-12-05T01:03:58.010Z,2.10
2022-12-05T01:06:26.855Z,2.10
2022-12-05T01:08:58.269Z,2.20
2022-12-05T01:11:26.360Z,2.13
2022-12-05T01:13:54.314Z,2.20
2022-12-05T01:16:28.875Z,2.22
2022-12-05T01:18:58.327Z,2.60
2022-12-05T01:21:25.971Z,1.90
2022-12-05T01:23:52.969Z,2.00
2022-12-05T01:26:21.900Z,1.90
2022-12-05T01:28:49.456Z,2.45
2022-12-05T01:31:26.780Z,2.03
2022-12-05T01:33:55.685Z,2.03
2022-12-05T01:36:23.759Z,2.38
2022-12-05T01:38:51.458Z,2.72
2022-12-05T01:41:25.177Z,2.45
2022-12-05T01:43:55.123Z,3.08
2022-12-05T01:46:22.778Z,3.08
2022-12-05T01:48:51.878Z,2.60
2022-12-05T01:51:19.259Z,2.42
2022-12-05T01:53:46.269Z,2.30
2022-12-05T01:56:14.055Z,2.45
2022-12-05T01:58:43.255Z,2.75
2022-12-05T02:01:12.624Z,3.00
2022-12-05T02:03:42.050Z,2.30
2022-12-05T02:06:09.762Z,2.33
2022-12-05T02:08:37.362Z,3.28
2022-12-05T02:11:07.391Z,2.60
2022-12-05T02:13:37.409Z,2.67
2022-12-05T02:16:34.733Z,2.88
2022-12-05T02:19:48.585Z,2.67
2022-12-05T02:22:44.313Z,3.03
2022-12-05T02:25:49.968Z,3.13
2022-12-05T02:28:16.875Z,2.92
2022-12-05T02:31:12.071Z,3.53
2022-12-05T02:33:50.895Z,3.30
2022-12-05T02:36:23.315Z,3.15
2022-12-05T02:39:35.672Z,3.30
2022-12-05T02:42:13.451Z,4.07
2022-12-05T02:44:52.547Z,4.10
2022-12-05T02:47:23.230Z,2.92
2022-12-05T02:49:52.430Z,3.78
2022-12-05T02:52:21.381Z,4.03
2022-12-05T02:54:50.943Z,3.67
2022-12-05T02:57:18.532Z,4.18
2022-12-05T02:59:45.799Z,3.88
2022-12-05T03:02:35.206Z,4.05
2022-12-05T03:05:20.034Z,3.53
2022-12-05T03:07:50.758Z,3.22
2022-12-05T03:10:24.005Z,3.50
2022-12-05T03:12:57.053Z,3.90
2022-12-05T03:15:34.761Z,4.15
2022-12-05T03:18:14.901Z,4.47
2022-12-05T03:20:54.776Z,3.63
2022-12-05T03:23:30.971Z,5.00
2022-12-05T03:26:12.282Z,4.20
2022-12-05T03:28:56.206Z,4.07
2022-12-05T03:32:05.476Z,3.95
2022-12-05T03:34:38.626Z,3.95
2022-12-05T03:37:11.247Z,3.70
2022-12-05T03:39:43.912Z,4.53
2022-12-05T03:42:17.732Z,3.35
2022-12-05T03:44:57.713Z,4.03
2022-12-05T03:47:42.392Z,3.72
2022-12-05T03:50:37.607Z,3.67
2022-12-05T03:53:25.254Z,3.75
2022-12-05T03:56:05.147Z,3.72
2022-12-05T03:58:38.777Z,3.85
2022-12-05T04:01:08.231Z,3.50
2022-12-05T04:03:44.225Z,4.57
2022-12-05T04:06:18.414Z,4.25
2022-12-05T04:08:54.004Z,3.67
2022-12-05T04:11:25.321Z,3.85
2022-12-05T04:14:04.181Z,4.40
2022-12-05T04:17:04.840Z,3.97
2022-12-05T04:20:11.534Z,3.97
2022-12-05T04:22:39.685Z,4.65
2022-12-05T04:25:30.009Z,4.55
2022-12-05T04:28:32.331Z,3.60
2022-12-05T04:31:19.478Z,3.88
2022-12-05T04:34:07.792Z,4.15
2022-12-05T04:36:38.715Z,3.72
2022-12-05T04:39:17.893Z,4.20
2022-12-05T04:42:11.956Z,3.88
2022-12-05T04:44:47.165Z,3.72
2022-12-05T04:47:17.203Z,3.75
2022-12-05T04:49:49.316Z,4.28
2022-12-05T04:52:21.480Z,4.32
2022-12-05T04:55:01.594Z,4.10
2022-12-05T04:57:33.026Z,3.95
2022-12-05T05:00:00.860Z,4.30
2022-12-05T05:02:51.816Z,4.47
2022-12-05T05:05:20.791Z,4.47
2022-12-05T05:07:50.930Z,4.35
2022-12-05T05:10:27.246Z,4.30
2022-12-05T05:12:54.695Z,3.92
2022-12-05T05:15:21.942Z,3.60
2022-12-05T05:17:49.074Z,4.38
2022-12-05T05:20:25.352Z,4.45
2022-12-05T05:22:56.964Z,4.28
2022-12-05T05:25:25.638Z,2.78
2022-12-05T05:27:54.794Z,4.00
2022-12-05T05:30:23.786Z,4.40
2022-12-05T05:32:51.044Z,4.05
2022-12-05T05:35:18.123Z,3.60
2022-12-05T05:37:45.198Z,4.25
2022-12-05T05:40:13.724Z,3.88
2022-12-05T05:42:49.492Z,3.80
2022-12-05T05:45:17.044Z,4.85
2022-12-05T05:47:44.418Z,4.25
2022-12-05T05:50:16.272Z,4.65
2022-12-05T05:52:46.947Z,4.45
2022-12-05T05:55:13.862Z,4.22
2022-12-05T05:57:40.898Z,4.35
2022-12-05T06:00:08.731Z,4.53
2022-12-05T06:02:36.781Z,4.57
2022-12-05T06:05:05.072Z,3.83
2022-12-05T06:07:32.461Z,4.13
2022-12-05T06:09:59.761Z,4.10
2022-12-05T06:12:26.983Z,4.13
2022-12-05T06:14:54.403Z,4.63
2022-12-05T06:17:21.632Z,4.95
2022-12-05T06:19:48.604Z,4.85
2022-12-05T06:22:15.572Z,4.32
2022-12-05T06:24:42.750Z,2.75
2022-12-05T06:27:10.011Z,4.30
2022-12-05T06:29:37.137Z,3.35
2022-12-05T06:32:04.517Z,4.25
2022-12-05T06:34:32.802Z,3.47
2022-12-05T06:37:00.953Z,3.63
2022-12-05T06:39:28.248Z,3.72
2022-12-05T06:41:55.445Z,3.58
2022-12-05T06:44:22.588Z,3.35
2022-12-05T06:46:49.670Z,3.67
2022-12-05T06:49:16.706Z,3.70
2022-12-05T06:51:43.666Z,4.35
2022-12-05T06:54:13.069Z,3.30
2022-12-05T06:56:40.101Z,4.03
2022-12-05T06:59:07.122Z,3.35
2022-12-05T07:01:42.280Z,3.85
2022-12-05T07:55:02.077Z,2.97
2022-12-05T08:01:42.540Z,3.20
2022-12-05T08:11:20.850Z,3.70
2022-12-05T08:48:56.746Z,3.42
2022-12-05T09:16:51.016Z,5.53
2022-12-05T09:29:48.516Z,7.05
2022-12-05T09:33:19.218Z,6.85
2022-12-05T10:30:00.507Z,8.90
2022-12-05T10:40:30.884Z,7.65
2022-12-05T10:46:36.307Z,6.28
2022-12-05T15:30:44.505Z,16.00
2022-12-05T15:33:13.273Z,14.02
2022-12-05T15:35:41.497Z,17.35
2022-12-05T15:38:27.811Z,17.98
2022-12-05T15:40:57.273Z,15.65
2022-12-05T15:52:41.865Z,89.35
2022-12-05T15:55:18.803Z,95.32
2022-12-05T15:57:54.535Z,49.03
2022-12-05T16:00:22.360Z,26.10
2022-12-05T16:03:21.183Z,22.98
2022-12-05T16:05:58.584Z,12.07
2022-12-05T16:08:30.211Z,9.02
2022-12-05T16:10:57.440Z,8.63
2022-12-05T16:13:27.451Z,8.70
2022-12-05T16:15:55.257Z,7.10
2022-12-05T16:18:31.526Z,7.13
2022-12-05T16:20:58.725Z,6.25
2022-12-05T16:23:29.999Z,14.02
2022-12-05T16:26:16.294Z,8.00
2022-12-05T16:28:56.885Z,11.57
2022-12-05T16:31:24.067Z,9.18
2022-12-05T16:34:04.917Z,10.35
2022-12-05T16:36:32.406Z,8.68
2022-12-05T16:39:07.580Z,8.32
2022-12-05T16:41:39.830Z,6.60
2022-12-05T16:44:47.083Z,8.63
2022-12-05T16:47:43.627Z,6.60
2022-12-05T16:50:32.388Z,6.93
2022-12-05T16:53:08.744Z,6.10
2022-12-05T16:55:40.470Z,6.32
2022-12-05T16:58:12.379Z,7.22
2022-12-05T17:00:39.761Z,6.90
2022-12-05T17:03:33.462Z,7.82
2022-12-05T17:06:00.279Z,8.75
2022-12-05T17:08:27.808Z,8.05
2022-12-05T17:10:54.988Z,8.35
2022-12-05T17:13:22.057Z,9.77
2022-12-05T17:15:50.285Z,8.48
2022-12-05T17:18:27.994Z,8.18
2022-12-05T17:21:01.110Z,10.02
2022-12-05T17:23:28.259Z,10.55
2022-12-05T17:25:57.579Z,9.68
2022-12-05T17:28:25.642Z,13.07
2022-12-05T17:30:52.645Z,15.55
2022-12-05T17:33:20.223Z,12.98
2022-12-05T17:35:47.658Z,12.48
2022-12-05T17:38:15.077Z,11.60
2022-12-05T17:40:42.757Z,13.05
2022-12-05T17:43:17.608Z,13.73
2022-12-05T17:45:49.127Z,10.77
2022-12-05T17:48:16.525Z,8.65
2022-12-05T17:50:46.802Z,8.85
2022-12-05T17:53:16.982Z,8.88
2022-12-05T17:55:44.460Z,9.00
2022-12-05T17:58:12.548Z,11.60
2022-12-05T18:00:39.978Z,8.55
2022-12-05T18:03:07.187Z,9.63
2022-12-05T18:05:34.273Z,8.68
2022-12-05T18:08:01.331Z,8.55
2022-12-05T18:10:28.594Z,9.35
2022-12-05T18:12:55.654Z,7.82
2022-12-05T18:15:22.597Z,8.20
2022-12-05T18:17:49.545Z,6.85
2022-12-05T18:20:16.548Z,7.55
2022-12-05T18:22:43.952Z,7.80
2022-12-05T18:25:11.388Z,7.38
2022-12-05T18:27:38.952Z,6.07
2022-12-05T18:30:07.609Z,9.68
2022-12-05T18:32:35.002Z,8.57
2022-12-05T18:35:07.506Z,9.57
2022-12-05T18:37:39.086Z,12.32
2022-12-05T18:40:07.676Z,8.77
2022-12-05T18:42:35.290Z,9.50
2022-12-05T18:45:04.572Z,8.35
2022-12-05T18:47:32.256Z,9.90
2022-12-05T18:50:00.982Z,7.97
2022-12-05T18:52:28.346Z,8.30
2022-12-05T18:55:15.590Z,8.05
2022-12-05T18:57:43.134Z,9.70
2022-12-05T19:00:11.432Z,7.57
2022-12-05T19:02:38.907Z,10.23
2022-12-05T19:05:07.106Z,8.10
2022-12-05T19:07:34.589Z,7.50
2022-12-05T19:10:02.174Z,8.07
2022-12-05T19:12:30.107Z,6.93
2022-12-05T19:14:57.793Z,7.30
2022-12-05T19:17:25.540Z,7.97
2022-12-05T19:19:54.400Z,6.97
2022-12-05T19:22:21.856Z,8.25
2022-12-05T19:24:52.358Z,10.85
2022-12-05T19:27:19.601Z,8.02
2022-12-05T19:29:46.887Z,8.27
2022-12-05T19:32:15.380Z,8.93
2022-12-05T19:34:43.235Z,10.65
2022-12-05T19:37:10.749Z,14.93
2022-12-05T19:39:39.042Z,10.35
2022-12-05T19:42:06.162Z,13.02
2022-12-05T19:44:33.626Z,9.73
2022-12-05T19:47:01.079Z,11.35
2022-12-05T19:49:28.748Z,14.80
2022-12-05T19:51:59.242Z,17.85
2022-12-05T19:54:27.072Z,21.90
2022-12-05T19:56:58.675Z,22.05
2022-12-05T19:59:26.174Z,21.00
2022-12-05T20:01:54.025Z,14.80
2022-12-05T20:04:22.800Z,12.32
2022-12-05T20:06:50.770Z,10.88
2022-12-05T20:09:21.016Z,11.13
2022-12-05T20:11:55.155Z,10.50
2022-12-05T20:14:24.371Z,10.18
2022-12-05T20:16:53.032Z,12.02
2022-12-05T20:19:20.762Z,9.88
2022-12-05T20:21:48.166Z,9.57
2022-12-05T20:24:15.611Z,8.57
2022-12-05T20:26:44.490Z,11.80
2022-12-05T20:29:12.301Z,9.60
2022-12-05T20:31:42.985Z,9.98
2022-12-05T20:34:13.684Z,10.32
2022-12-05T20:36:42.970Z,9.65
2022-12-05T20:39:16.755Z,11.07
2022-12-05T20:41:44.511Z,9.68
2022-12-05T20:44:15.141Z,11.02
2022-12-05T20:46:42.610Z,10.07
2022-12-05T20:49:10.348Z,11.30
2022-12-05T20:51:43.553Z,11.55
2022-12-05T20:54:13.565Z,11.05
2022-12-05T20:56:45.198Z,11.15
2022-12-05T20:59:14.475Z,10.17
2022-12-05T21:01:42.100Z,9.48
2022-12-05T21:04:11.394Z,10.57
2022-12-05T21:06:45.160Z,9.57
2022-12-05T21:09:18.671Z,10.73
2022-12-05T21:11:46.091Z,8.88
2022-12-05T21:14:13.262Z,9.38
2022-12-05T21:16:43.348Z,12.07
2022-12-05T21:19:10.763Z,8.55
2022-12-05T21:21:38.517Z,10.07
2022-12-05T21:24:06.589Z,9.50
2022-12-05T21:26:35.166Z,9.25
2022-12-05T21:29:05.673Z,9.00
2022-12-05T21:31:36.074Z,8.68
2022-12-05T21:34:06.984Z,10.95
2022-12-05T21:36:36.833Z,9.48
2022-12-05T21:39:05.877Z,10.07
2022-12-05T21:41:33.792Z,8.82
2022-12-05T21:44:03.439Z,9.52
2022-12-05T21:46:31.020Z,8.90
2022-12-05T21:48:58.260Z,8.35
2022-12-05T21:51:25.431Z,9.25
2022-12-05T21:53:52.874Z,9.00
2022-12-05T21:56:25.790Z,7.93
2022-12-05T21:58:53.224Z,8.25
2022-12-05T22:01:23.120Z,7.95
2022-12-05T22:03:55.984Z,8.82
2022-12-05T22:08:50.262Z,7.82
2022-12-05T22:11:19.921Z,8.20
2022-12-05T22:13:47.545Z,7.30
2022-12-05T22:16:15.296Z,7.38
2022-12-05T22:18:46.644Z,6.88
2022-12-05T22:21:16.715Z,6.22
2022-12-05T22:23:45.068Z,6.47
2022-12-05T22:26:21.600Z,6.55
2022-12-05T22:28:51.296Z,6.55
2022-12-05T22:31:19.059Z,7.13
2022-12-05T22:33:46.754Z,6.10
2022-12-05T22:36:16.668Z,6.10
2022-12-05T22:38:46.969Z,5.80
2022-12-05T22:41:23.050Z,5.70
2022-12-05T22:43:54.599Z,6.05
2022-12-05T22:46:21.906Z,6.53
2022-12-05T22:48:50.185Z,5.47
2022-12-05T22:51:19.400Z,4.65
2022-12-05T22:53:49.736Z,5.90
2022-12-05T22:56:17.896Z,5.97
2022-12-05T22:58:46.408Z,5.80
2022-12-05T23:01:19.695Z,6.00
2022-12-05T23:03:48.280Z,6.45
2022-12-05T23:06:18.283Z,5.75
2022-12-05T23:08:50.610Z,5.93
2022-12-05T23:11:19.105Z,6.75
2022-12-05T23:13:47.290Z,7.00
2022-12-05T23:16:16.379Z,6.57
2022-12-05T23:18:46.922Z,7.00
2022-12-05T23:21:30.630Z,5.10
2022-12-05T23:24:00.819Z,5.95
2022-12-05T23:26:33.480Z,6.63
2022-12-05T23:29:00.759Z,6.50
2022-12-05T23:31:27.999Z,6.30
2022-12-05T23:34:01.343Z,6.15
2022-12-05T23:36:30.363Z,6.22
2022-12-05T23:38:57.410Z,7.47
2022-12-05T23:41:26.266Z,7.07
2022-12-05T23:43:53.753Z,6.93
2022-12-05T23:46:23.974Z,6.13
2022-12-05T23:48:51.680Z,6.35
2022-12-05T23:51:24.401Z,7.43
2022-12-05T23:53:59.217Z,7.25
2022-12-05T23:56:28.725Z,7.22
2022-12-05T23:58:56.379Z,9.50
